Bookmark and Share
Track history (hours):
 

Calumet

More information available from US FCC via Universal Licensing System and Coast Guard Vessel Documentation Center.

Last reported at 2014-Apr-21 03:33 UTC. Time now 2014-Apr-23 15:24 UTC.
Position N 45°23' W 086°19'.

Length 192 m; draft 6.1 m.

Type: Cargo ship. MMSI: 367132630.

NotesDate/timePositionNaut miles runAvg speedWind from/ knotsBaromVisibWave heightAir tempDewpointWater temp
2014-Apr-21 03:33N 45°23' W 086°19'1211.6
2014-Apr-21 02:33N 45°34' W 086°15'9 9.2
2014-Apr-21 01:33N 45°43' W 086°09'1110.8
2014-Apr-21 00:33N 45°49' W 085°57'9 8.5
2014-Apr-20 23:33N 45°50' W 085°44'1110.6
2014-Apr-20 22:33N 45°53' W 085°30'1010.3
2014-Apr-20 21:33N 45°52' W 085°15'1212.1
2014-Apr-20 20:33N 45°50' W 084°58'1211.7
2014-Apr-20 19:33N 45°49' W 084°41'7 6.8
2014-Apr-20 18:33N 45°52' W 084°32'1 0.9
2014-Apr-20 17:33N 45°53' W 084°32'0 0.0
2014-Apr-20 16:33N 45°53' W 084°32'0 0.1
2014-Apr-20 15:33N 45°53' W 084°32'0 0.0
2014-Apr-20 14:33N 45°53' W 084°32'0 0.0
2014-Apr-20 13:33N 45°53' W 084°32'0 0.0
2014-Apr-20 12:33N 45°53' W 084°32'0 0.0
2014-Apr-20 11:33N 45°53' W 084°32'0 0.0
2014-Apr-20 10:33N 45°53' W 084°32'0 0.0
2014-Apr-20 09:33N 45°53' W 084°32'0 0.0
2014-Apr-20 08:33N 45°53' W 084°32'0 0.1
2014-Apr-20 07:33N 45°53' W 084°32'0 0.0
2014-Apr-20 06:33N 45°53' W 084°32'0 0.0
2014-Apr-20 05:33N 45°53' W 084°32'2 1.8
2014-Apr-20 04:33N 45°52' W 084°30'9 9.4
2014-Apr-20 03:33N 45°50' W 084°17'2311.7
2014-Apr-20 01:33N 45°34' W 083°53'  

Dump ship's entire track history

sailing weather and tide predictions

Calumet — WDE3568 — position and weather